createdAt,value
2022-09-06T00:03:55.657Z,17.01
2022-09-06T00:08:57.193Z,16.99
2022-09-06T00:13:58.675Z,16.83
2022-09-06T00:19:00.370Z,16.86
2022-09-06T00:24:03.838Z,16.79
2022-09-06T00:29:05.382Z,16.75
2022-09-06T00:34:06.964Z,16.71
2022-09-06T00:39:08.500Z,16.65
2022-09-06T00:44:10.164Z,16.60
2022-09-06T00:49:36.961Z,16.56
2022-09-06T00:54:39.935Z,16.51
2022-09-06T00:59:42.570Z,16.45
2022-09-06T01:04:45.286Z,16.38
2022-09-06T01:10:08.608Z,16.30
2022-09-06T01:15:35.898Z,16.26
2022-09-06T01:20:58.920Z,16.24
2022-09-06T01:26:22.176Z,16.16
2022-09-06T01:31:48.488Z,16.04
2022-09-06T01:37:13.488Z,15.98
2022-09-06T01:42:22.842Z,16.02
2022-09-06T01:47:44.761Z,16.04
2022-09-06T01:53:18.695Z,16.05
2022-09-06T01:58:29.282Z,16.04
2022-09-06T02:04:01.887Z,16.01
2022-09-06T02:09:10.447Z,15.97
2022-09-06T02:14:18.550Z,15.97
2022-09-06T02:19:28.882Z,16.04
2022-09-06T02:24:33.063Z,16.04
2022-09-06T02:29:35.397Z,16.14
2022-09-06T02:34:40.192Z,16.19
2022-09-06T02:39:41.752Z,16.17
2022-09-06T02:44:43.645Z,16.13
2022-09-06T02:49:45.293Z,16.23
2022-09-06T02:54:47.065Z,16.28
2022-09-06T02:59:48.813Z,16.29
2022-09-06T03:04:50.383Z,16.39
2022-09-06T03:09:51.960Z,16.39
2022-09-06T03:14:55.097Z,16.36
2022-09-06T03:19:56.721Z,16.39
2022-09-06T03:24:58.432Z,16.39
2022-09-06T03:30:00.040Z,16.35
2022-09-06T03:35:01.808Z,16.33
2022-09-06T03:40:05.308Z,16.28
2022-09-06T03:45:08.659Z,16.23
2022-09-06T03:50:10.299Z,16.19
2022-09-06T03:55:11.997Z,16.10
2022-09-06T04:00:14.236Z,16.07
2022-09-06T04:05:17.924Z,16.03
2022-09-06T04:10:20.928Z,16.00
2022-09-06T04:15:22.504Z,15.91
2022-09-06T04:20:24.000Z,15.92
2022-09-06T04:25:25.580Z,15.98
2022-09-06T04:30:31.956Z,16.01
2022-09-06T04:35:33.565Z,15.99
2022-09-06T04:40:35.178Z,16.00
2022-09-06T04:45:36.795Z,16.05
2022-09-06T04:50:38.645Z,16.15
2022-09-06T04:55:40.576Z,16.32
2022-09-06T05:00:44.591Z,16.33
2022-09-06T05:05:47.614Z,16.36
2022-09-06T05:10:52.088Z,16.36
2022-09-06T05:15:53.871Z,16.35
2022-09-06T05:20:56.266Z,16.44
2022-09-06T05:25:57.894Z,16.46
2022-09-06T05:31:07.572Z,16.43
2022-09-06T05:36:09.831Z,16.41
2022-09-06T05:41:11.481Z,16.34
2022-09-06T05:46:13.625Z,16.31
2022-09-06T05:51:15.240Z,16.39
2022-09-06T05:56:17.392Z,16.43
2022-09-06T06:01:22.804Z,16.48
2022-09-06T06:06:26.068Z,16.46
2022-09-06T06:11:28.451Z,16.54
2022-09-06T06:16:30.518Z,16.69
2022-09-06T06:21:33.724Z,16.84
2022-09-06T06:26:36.515Z,16.85
2022-09-06T06:31:39.319Z,16.96
2022-09-06T06:36:40.958Z,17.05
2022-09-06T06:41:42.524Z,17.19
2022-09-06T06:46:44.026Z,17.28
2022-09-06T06:51:45.656Z,17.30
2022-09-06T06:56:47.173Z,17.36
2022-09-06T07:01:50.541Z,17.46
2022-09-06T07:12:25.493Z,17.51
2022-09-06T07:17:26.972Z,17.62
2022-09-06T07:22:28.671Z,17.66
2022-09-06T07:32:47.473Z,18.00
2022-09-06T07:37:55.156Z,18.09
2022-09-06T07:42:58.068Z,18.16
2022-09-06T07:47:59.753Z,18.25
2022-09-06T07:53:11.204Z,18.41
2022-09-06T07:58:17.251Z,18.48
2022-09-06T08:03:18.742Z,18.63
2022-09-06T08:13:42.305Z,18.91
2022-09-06T08:18:44.216Z,18.98
2022-09-06T08:23:51.076Z,19.21
2022-09-06T08:28:58.147Z,19.54
2022-09-06T08:34:00.806Z,19.75
2022-09-06T08:39:05.327Z,19.68
2022-09-06T08:49:46.026Z,19.80
2022-09-06T08:55:18.538Z,20.06
2022-09-06T09:00:20.662Z,20.36
2022-09-06T09:05:27.926Z,20.48
2022-09-06T09:10:34.767Z,20.70
2022-09-06T09:15:40.342Z,20.97
2022-09-06T09:20:42.320Z,21.28
2022-09-06T09:25:46.491Z,21.51
2022-09-06T09:30:53.134Z,21.59
2022-09-06T09:35:57.122Z,21.74
2022-09-06T09:41:04.147Z,21.57
2022-09-06T09:46:14.826Z,21.51
2022-09-06T09:51:27.684Z,21.10
2022-09-06T09:56:49.519Z,20.92
2022-09-06T10:01:55.773Z,20.84
2022-09-06T10:07:19.655Z,21.00
2022-09-06T10:12:30.768Z,21.19
2022-09-06T10:17:35.816Z,21.22
2022-09-06T10:22:49.613Z,21.40
2022-09-06T10:28:11.989Z,21.66
2022-09-06T10:33:22.876Z,22.10
2022-09-06T10:38:36.675Z,22.85
2022-09-06T10:43:57.588Z,23.99
2022-09-06T10:48:59.835Z,25.75
2022-09-06T10:54:09.600Z,26.15
2022-09-06T10:59:40.588Z,26.17
2022-09-06T11:10:17.774Z,25.42
2022-09-06T11:15:22.062Z,25.17
2022-09-06T11:20:45.793Z,24.83
2022-09-06T11:26:09.667Z,25.38
2022-09-06T11:36:45.110Z,25.78
2022-09-06T11:41:46.975Z,24.68
2022-09-06T11:46:48.759Z,24.44
2022-09-06T11:51:50.731Z,24.28
2022-09-06T11:57:14.767Z,24.43
2022-09-06T12:02:36.344Z,24.74
2022-09-06T12:07:59.289Z,24.69
2022-09-06T12:13:01.110Z,24.70
2022-09-06T12:18:02.712Z,24.21
2022-09-06T12:23:36.891Z,24.07
2022-09-06T12:28:49.729Z,23.91
2022-09-06T12:33:52.412Z,23.94
2022-09-06T12:38:57.283Z,24.17
2022-09-06T12:44:00.536Z,24.21
2022-09-06T12:49:08.438Z,24.36
2022-09-06T12:54:25.525Z,24.41
2022-09-06T12:59:27.256Z,24.39
2022-09-06T13:04:42.655Z,24.00
2022-09-06T13:09:52.035Z,23.47
2022-09-06T13:15:00.289Z,23.30
2022-09-06T13:20:12.695Z,22.85
2022-09-06T13:25:20.971Z,22.64
2022-09-06T13:30:49.071Z,22.53
2022-09-06T13:36:09.258Z,22.25
2022-09-06T13:41:26.205Z,22.10
2022-09-06T13:46:27.871Z,21.96
2022-09-06T13:51:29.798Z,21.94
2022-09-06T13:56:31.791Z,21.92
2022-09-06T14:01:34.156Z,21.95
2022-09-06T14:06:36.972Z,21.95
2022-09-06T14:11:39.205Z,21.93
2022-09-06T14:16:40.983Z,22.05
2022-09-06T14:21:43.280Z,22.08
2022-09-06T14:26:45.028Z,22.13
2022-09-06T14:31:48.522Z,22.01
2022-09-06T14:36:50.345Z,21.90
2022-09-06T14:41:52.125Z,21.91
2022-09-06T14:46:54.632Z,21.84
2022-09-06T14:51:56.329Z,21.81
2022-09-06T14:56:57.882Z,21.82
2022-09-06T15:01:59.597Z,21.80
2022-09-06T15:07:01.466Z,21.78
2022-09-06T15:12:03.610Z,21.84
2022-09-06T15:17:08.963Z,21.84
2022-09-06T15:22:10.671Z,21.81
2022-09-06T15:27:12.459Z,21.74
2022-09-06T15:32:14.117Z,21.61
2022-09-06T15:37:15.886Z,21.50
2022-09-06T15:42:18.867Z,21.34
2022-09-06T15:47:20.567Z,21.26
2022-09-06T15:52:22.135Z,21.21
2022-09-06T15:57:24.447Z,21.01
2022-09-06T16:02:26.199Z,20.97
2022-09-06T16:07:27.757Z,20.97
2022-09-06T16:12:29.364Z,20.99
2022-09-06T16:17:31.296Z,21.02
2022-09-06T16:22:33.144Z,20.98
2022-09-06T16:27:34.815Z,20.80
2022-09-06T16:32:36.462Z,20.68
2022-09-06T16:37:38.048Z,20.61
2022-09-06T16:42:39.580Z,20.58
2022-09-06T16:47:41.113Z,20.57
2022-09-06T16:52:42.808Z,20.51
2022-09-06T16:57:44.663Z,20.55
2022-09-06T17:02:47.738Z,20.42
2022-09-06T17:07:49.812Z,20.32
2022-09-06T17:12:51.460Z,20.30
2022-09-06T17:17:53.141Z,20.26
2022-09-06T17:22:54.773Z,20.24
2022-09-06T17:27:57.749Z,20.22
2022-09-06T17:32:59.332Z,20.17
2022-09-06T17:38:01.002Z,20.11
2022-09-06T17:43:02.873Z,20.01
2022-09-06T17:48:04.988Z,19.84
2022-09-06T17:53:06.485Z,19.69
2022-09-06T17:58:08.665Z,19.58
2022-09-06T18:03:10.322Z,19.39
2022-09-06T18:08:13.034Z,19.35
2022-09-06T18:13:14.619Z,19.27
2022-09-06T18:18:17.973Z,19.24
2022-09-06T18:23:20.313Z,19.15
2022-09-06T18:28:21.873Z,19.10
2022-09-06T18:33:23.750Z,19.08
2022-09-06T18:38:25.788Z,18.98
2022-09-06T18:43:29.865Z,18.80
2022-09-06T18:48:32.973Z,18.62
2022-09-06T18:53:36.244Z,18.47
2022-09-06T18:58:38.892Z,18.36
2022-09-06T19:03:41.454Z,18.18
2022-09-06T19:08:43.780Z,18.01
2022-09-06T19:13:47.188Z,18.03
2022-09-06T19:18:49.393Z,17.96
2022-09-06T19:23:59.871Z,17.80
2022-09-06T19:29:04.723Z,17.68
2022-09-06T19:34:07.470Z,17.55
2022-09-06T19:39:11.936Z,17.42
2022-09-06T19:44:17.480Z,17.34
2022-09-06T19:49:19.678Z,17.30
2022-09-06T19:54:21.240Z,17.25
2022-09-06T19:59:22.841Z,17.19
2022-09-06T20:04:24.912Z,17.22
2022-09-06T20:09:26.439Z,17.07
2022-09-06T20:14:28.636Z,17.04
2022-09-06T20:19:30.194Z,17.05
2022-09-06T20:24:31.684Z,16.94
2022-09-06T20:29:33.182Z,16.89
2022-09-06T20:34:35.012Z,16.73
2022-09-06T20:39:36.564Z,16.66
2022-09-06T20:44:38.192Z,16.63
2022-09-06T20:49:39.688Z,16.62
2022-09-06T20:54:41.384Z,16.55
2022-09-06T20:59:42.917Z,16.63
2022-09-06T21:04:44.577Z,16.60
2022-09-06T21:09:46.146Z,16.48
2022-09-06T21:14:48.403Z,16.58
2022-09-06T21:19:49.975Z,16.52
2022-09-06T21:24:51.511Z,16.46
2022-09-06T21:29:53.172Z,16.54
2022-09-06T21:34:54.805Z,16.47
2022-09-06T21:39:56.386Z,16.35
2022-09-06T21:44:57.992Z,16.22
2022-09-06T21:49:59.549Z,16.23
2022-09-06T21:55:01.192Z,16.12
2022-09-06T22:00:03.260Z,16.11
2022-09-06T22:05:06.537Z,16.09
2022-09-06T22:10:09.345Z,16.05
2022-09-06T22:15:11.160Z,16.03
2022-09-06T22:20:12.706Z,16.01
2022-09-06T22:25:20.439Z,16.02
2022-09-06T22:30:25.605Z,15.92
2022-09-06T22:35:27.471Z,15.81
2022-09-06T22:40:28.983Z,15.87
2022-09-06T22:45:32.752Z,15.88
2022-09-06T22:50:34.440Z,15.85
2022-09-06T22:55:36.428Z,15.73
2022-09-06T23:00:38.181Z,15.79
2022-09-06T23:05:39.761Z,15.71
2022-09-06T23:10:42.920Z,15.62
2022-09-06T23:15:47.790Z,15.53
2022-09-06T23:20:49.471Z,15.53
2022-09-06T23:25:51.558Z,15.51
2022-09-06T23:30:53.119Z,15.44
2022-09-06T23:35:55.673Z,15.54
2022-09-06T23:40:57.184Z,15.51
2022-09-06T23:45:58.734Z,15.41
2022-09-06T23:51:00.725Z,15.53
2022-09-06T23:56:02.558Z,15.44
